Corning, Iowa
Current Conditions -  °F | °C
As of 8:35 PM on Friday 28 Nov 2014 (Local Time) from KCSQ Reporting Station
Clear Clear  
Wind Chill:   Ceiling: Unl
Heat Index:   Visibility: 10mi
Dew Point:   Wind: 12mph
Humidity: 75%   Direction: 160°SSE
Pressure: 29.69"   Gusts: NA
Location:  40.99°N, 94.74°W
Report Text: KCSQ 290235Z AUTO 16010KT 10SM CLR 04/M00 A2969 RMK AO2
Loading
Personal Weather Stations






























Interactive Weather Map New forecast layout! Learn more

10-Day Weather Forecast

Advertisements
Track Severe Weather on mobile